Terminal Aerodrome Forecast
Issued by NWS Twin Cities, MN

Home | Current Version | Previous Version | Text Only | Print | Product List | Glossary Off
Versions: 1 2 3 4 5 6 7 8 9 10 11 12 13 14 15 16 17 18 19 20 21 22 23 24 25 26 27 28 29 30 31 32 33

000
FTUS43 KMPX 300122 AAC
TAFMSP
TAF AMD
KMSP 300122Z 3001/0106 13009KT 5SM -SHRA VCTS BKN040CB OVC080
     FM300200 VRB03KT P6SM SKC
     FM301500 02007KT P6SM SCT060 SCT250
     FM302300 05008KT P6SM BKN250=

USA.gov is the U.S. government's official web portal to all federal, state and local government web resources and services.